Weather at Wonthaggi Airport

Public forecast

Using degrees Celsius for public forecast. Weather courtesy of forecast.io.

Closest aviation weather report (METAR) to Wonthaggi Airport

Closest report is Avalon Airport, 60.3 nm (111.6 km) WNW.

2023/03/24 00:00 (retrieved 24 minutes ago)

YMAV 240000Z AUTO 16013KT 9999 // BKN045 19/10 Q1020 RF000/0000

Closest aviation forecast (TAF) to Wonthaggi Airport

Closest forecast is Avalon Airport, 60.3 nm (111.6 km) WNW.

2023/03/23 18:36 (retrieved 6 hours ago)

TAF TAF YMAV 231723Z 2318/2418 16008KT 9999 SCT018 BKN035 FM240100 17016KT 9999 BKN040 FM240900 17010KT 9999 SCT025